createdAt,value
2017-04-30T00:00:01.295Z,1012.01
2017-04-30T00:01:01.936Z,1012.04
2017-04-30T00:02:02.574Z,1011.95
2017-04-30T00:03:03.212Z,1011.94
2017-04-30T00:04:03.848Z,1012.03
2017-04-30T00:05:04.689Z,1011.94
2017-04-30T00:06:05.329Z,1012.00
2017-04-30T00:07:05.970Z,1012.01
2017-04-30T00:08:06.610Z,1011.92
2017-04-30T00:09:07.259Z,1011.90
2017-04-30T00:10:07.888Z,1011.94
2017-04-30T00:11:08.530Z,1011.88
2017-04-30T00:12:09.171Z,1011.88
2017-04-30T00:13:10.013Z,1011.93
2017-04-30T00:14:10.600Z,1011.88
2017-04-30T00:15:11.241Z,1011.95
2017-04-30T00:16:11.881Z,1011.86
2017-04-30T00:17:12.519Z,1011.92
2017-04-30T00:18:13.156Z,1011.98
2017-04-30T00:19:13.796Z,1011.84
2017-04-30T00:20:14.439Z,1011.83
2017-04-30T00:21:15.089Z,1011.83
2017-04-30T00:22:15.923Z,1011.79
2017-04-30T00:23:16.563Z,1011.72
2017-04-30T00:24:17.205Z,1011.69
2017-04-30T00:25:17.794Z,1011.68
2017-04-30T00:26:18.436Z,1011.62
2017-04-30T00:27:19.076Z,1011.73
2017-04-30T00:28:19.716Z,1011.80
2017-04-30T00:29:20.351Z,1011.84
2017-04-30T00:30:21.192Z,1011.77
2017-04-30T00:31:21.829Z,1011.68
2017-04-30T00:32:22.468Z,1011.61
2017-04-30T00:33:23.111Z,1011.60
2017-04-30T00:34:23.805Z,1011.71
2017-04-30T00:35:24.447Z,1011.70
2017-04-30T00:36:25.084Z,1011.61
2017-04-30T00:37:25.727Z,1011.51
2017-04-30T00:38:26.563Z,1011.56
2017-04-30T00:39:27.204Z,1011.58
2017-04-30T00:40:27.841Z,1011.56
2017-04-30T00:41:28.485Z,1011.51
2017-04-30T00:42:29.120Z,1011.51
2017-04-30T00:43:29.761Z,1011.39
2017-04-30T00:44:30.398Z,1011.43
2017-04-30T00:45:31.037Z,1011.36
2017-04-30T00:46:31.882Z,1011.40
2017-04-30T00:47:32.520Z,1011.41
2017-04-30T00:48:33.164Z,1011.35
2017-04-30T00:49:33.798Z,1011.30
2017-04-30T00:50:34.441Z,1011.28
2017-04-30T00:51:35.076Z,1011.30
2017-04-30T00:52:35.712Z,1011.24
2017-04-30T00:53:36.352Z,1011.25
2017-04-30T00:54:37.190Z,1011.29
2017-04-30T00:55:37.835Z,1011.22
2017-04-30T00:56:38.472Z,1011.24
2017-04-30T00:57:39.115Z,1011.20
2017-04-30T00:58:39.756Z,1011.26
2017-04-30T00:59:40.396Z,1011.22
2017-04-30T01:00:41.039Z,1011.09
2017-04-30T01:01:41.680Z,1011.15
2017-04-30T01:02:42.322Z,1011.07
2017-04-30T01:03:43.162Z,1011.14
2017-04-30T01:04:43.801Z,1011.13
2017-04-30T01:05:44.443Z,1011.16
2017-04-30T01:06:45.086Z,1011.26
2017-04-30T01:07:45.727Z,1011.22
2017-04-30T01:08:46.365Z,1011.19
2017-04-30T01:09:46.997Z,1010.99
2017-04-30T01:10:47.638Z,1011.14
2017-04-30T01:11:48.422Z,1011.13
2017-04-30T01:12:49.062Z,1011.13
2017-04-30T01:13:49.703Z,1011.06
2017-04-30T01:14:50.345Z,1010.89
2017-04-30T01:15:50.982Z,1010.97
2017-04-30T01:16:51.621Z,1010.93
2017-04-30T01:17:52.261Z,1010.98
2017-04-30T01:18:52.904Z,1011.05
2017-04-30T01:19:53.740Z,1011.05
2017-04-30T01:20:54.380Z,1010.97
2017-04-30T01:21:55.016Z,1010.92
2017-04-30T01:22:55.657Z,1010.85
2017-04-30T01:23:56.305Z,1010.83
2017-04-30T01:24:56.941Z,1010.77
2017-04-30T01:25:57.578Z,1010.77
2017-04-30T01:26:58.217Z,1010.70
2017-04-30T01:27:59.058Z,1010.66
2017-04-30T01:28:59.700Z,1010.64
2017-04-30T01:30:00.340Z,1010.59
2017-04-30T01:31:00.983Z,1010.68
2017-04-30T01:32:01.623Z,1010.60
2017-04-30T01:33:02.263Z,1010.60
2017-04-30T01:34:02.902Z,1010.57
2017-04-30T01:35:03.544Z,1010.65
2017-04-30T01:36:04.189Z,1010.62
2017-04-30T01:37:05.027Z,1010.61
2017-04-30T01:38:05.670Z,1010.58
2017-04-30T01:39:06.310Z,1010.50
2017-04-30T01:40:06.951Z,1010.50
2017-04-30T01:41:07.595Z,1010.48
2017-04-30T01:42:08.237Z,1010.42
2017-04-30T01:43:08.878Z,1010.35
2017-04-30T01:44:09.519Z,1010.32
2017-04-30T01:45:10.418Z,1010.30
2017-04-30T01:46:11.059Z,1010.35
2017-04-30T01:47:11.706Z,1010.32
2017-04-30T01:48:12.340Z,1010.27
2017-04-30T01:49:12.982Z,1010.28
2017-04-30T01:50:13.623Z,1010.22
2017-04-30T01:51:14.265Z,1010.27
2017-04-30T01:52:14.903Z,1010.17
2017-04-30T01:53:15.740Z,1010.15
2017-04-30T01:54:16.384Z,1010.20
2017-04-30T01:55:17.023Z,1010.14
2017-04-30T01:56:17.665Z,1010.14
2017-04-30T01:57:18.301Z,1010.20
2017-04-30T01:58:18.950Z,1010.08
2017-04-30T01:59:19.905Z,1010.12
2017-04-30T02:00:20.548Z,1010.06
2017-04-30T02:01:21.385Z,1009.99
2017-04-30T02:02:22.029Z,1010.03
2017-04-30T02:03:22.667Z,1010.02
2017-04-30T02:04:23.305Z,1010.04
2017-04-30T02:05:23.954Z,1009.92
2017-04-30T02:06:24.587Z,1009.96
2017-04-30T02:07:25.222Z,1010.05
2017-04-30T02:08:25.864Z,1009.93
2017-04-30T02:09:26.707Z,1009.95
2017-04-30T02:10:27.347Z,1009.98
2017-04-30T02:11:27.985Z,1009.87
2017-04-30T02:12:28.620Z,1009.95
2017-04-30T02:13:29.262Z,1009.98
2017-04-30T02:14:29.899Z,1009.95
2017-04-30T02:15:30.540Z,1009.97
2017-04-30T02:16:31.181Z,1009.90
2017-04-30T02:17:31.820Z,1009.95
2017-04-30T02:18:32.610Z,1009.90
2017-04-30T02:19:33.254Z,1009.85
2017-04-30T02:20:33.894Z,1009.90
2017-04-30T02:21:34.533Z,1009.80
2017-04-30T02:22:35.173Z,1009.83
2017-04-30T02:23:35.806Z,1009.89
2017-04-30T02:24:36.448Z,1009.84
2017-04-30T02:25:37.089Z,1009.94
2017-04-30T02:26:37.928Z,1009.91
2017-04-30T02:27:38.570Z,1009.86
2017-04-30T02:28:39.208Z,1009.81
2017-04-30T02:29:39.842Z,1009.83
2017-04-30T02:30:40.479Z,1009.82
2017-04-30T02:31:41.120Z,1009.85
2017-04-30T02:32:41.759Z,1009.90
2017-04-30T02:33:42.399Z,1009.77
2017-04-30T02:34:43.238Z,1009.84
2017-04-30T02:35:43.878Z,1009.86
2017-04-30T02:36:44.519Z,1009.94
2017-04-30T02:37:45.159Z,1009.92
2017-04-30T02:38:45.795Z,1009.94
2017-04-30T02:39:46.441Z,1009.85
2017-04-30T02:40:47.079Z,1009.84
2017-04-30T02:41:47.720Z,1009.81
2017-04-30T02:42:48.562Z,1009.71
2017-04-30T02:43:49.202Z,1009.81
2017-04-30T02:44:49.842Z,1009.80
2017-04-30T02:45:50.484Z,1009.75
2017-04-30T02:46:51.123Z,1009.71
2017-04-30T02:47:51.767Z,1009.77
2017-04-30T02:48:52.401Z,1009.68
2017-04-30T02:49:53.041Z,1009.60
2017-04-30T02:50:53.682Z,1009.74
2017-04-30T02:51:54.767Z,1009.67
2017-04-30T02:52:55.406Z,1009.64
2017-04-30T02:53:56.045Z,1009.51
2017-04-30T02:54:56.683Z,1009.59
2017-04-30T02:55:57.326Z,1009.57
2017-04-30T02:56:57.966Z,1009.49
2017-04-30T02:57:58.607Z,1009.54
2017-04-30T02:58:59.254Z,1009.70
2017-04-30T03:00:00.089Z,1009.60
2017-04-30T03:01:00.730Z,1009.72
2017-04-30T03:02:01.367Z,1009.58
2017-04-30T03:03:02.009Z,1009.62
2017-04-30T03:04:02.654Z,1009.52
2017-04-30T03:05:03.287Z,1009.54
2017-04-30T03:06:03.926Z,1009.51
2017-04-30T03:07:04.568Z,1009.51
2017-04-30T03:08:05.411Z,1009.57
2017-04-30T03:09:06.049Z,1009.46
2017-04-30T03:10:06.692Z,1009.51
2017-04-30T03:11:07.331Z,1009.44
2017-04-30T03:12:07.972Z,1009.53
2017-04-30T03:13:08.614Z,1009.45
2017-04-30T03:14:09.253Z,1009.41
2017-04-30T03:15:09.887Z,1009.44
2017-04-30T03:16:10.676Z,1009.41
2017-04-30T03:17:11.314Z,1009.38
2017-04-30T03:18:11.955Z,1009.46
2017-04-30T03:19:12.597Z,1009.41
2017-04-30T03:20:13.233Z,1009.44
2017-04-30T03:21:13.873Z,1009.45
2017-04-30T03:22:14.516Z,1009.45
2017-04-30T03:23:15.158Z,1009.40
2017-04-30T03:24:16.248Z,1009.37
2017-04-30T03:25:16.885Z,1009.44
2017-04-30T03:26:17.527Z,1009.40
2017-04-30T03:27:21.114Z,1009.39
2017-04-30T03:28:21.760Z,1009.32
2017-04-30T03:29:22.396Z,1009.33
2017-04-30T03:30:23.035Z,1009.28
2017-04-30T03:31:23.677Z,1009.20
2017-04-30T03:32:24.318Z,1009.39
2017-04-30T03:33:25.106Z,1009.24
2017-04-30T03:34:25.748Z,1009.30
2017-04-30T03:35:26.387Z,1009.30
2017-04-30T03:36:27.027Z,1009.25
2017-04-30T03:37:27.666Z,1009.33
2017-04-30T03:38:28.308Z,1009.29
2017-04-30T03:39:28.948Z,1009.37
2017-04-30T03:40:29.589Z,1009.26
2017-04-30T03:41:30.577Z,1009.26
2017-04-30T03:42:31.216Z,1009.21
2017-04-30T03:43:31.853Z,1009.35
2017-04-30T03:44:32.492Z,1009.18
2017-04-30T03:45:33.132Z,1009.24
2017-04-30T03:46:33.774Z,1009.34
2017-04-30T03:47:34.410Z,1009.48
2017-04-30T03:48:35.050Z,1009.42
2017-04-30T03:49:35.889Z,1009.45
2017-04-30T03:50:36.481Z,1009.45
2017-04-30T03:51:37.116Z,1009.56
2017-04-30T03:52:37.756Z,1009.53
2017-04-30T03:53:38.394Z,1009.77
2017-04-30T03:54:39.038Z,1010.19
2017-04-30T03:55:39.681Z,1010.15
2017-04-30T03:56:40.320Z,1010.19
2017-04-30T03:57:41.109Z,1010.17
2017-04-30T03:58:41.750Z,1010.29
2017-04-30T03:59:42.393Z,1010.27
2017-04-30T04:00:43.033Z,1010.27
2017-04-30T04:01:43.675Z,1010.36
2017-04-30T04:02:44.312Z,1010.45
2017-04-30T04:03:44.952Z,1010.46
2017-04-30T04:04:45.592Z,1010.51
2017-04-30T04:05:46.232Z,1010.37
2017-04-30T04:06:47.175Z,1010.39
2017-04-30T04:07:47.811Z,1010.26
2017-04-30T04:08:48.449Z,1010.23
2017-04-30T04:09:49.091Z,1010.40
2017-04-30T04:10:49.730Z,1010.46
2017-04-30T04:11:50.369Z,1010.37
2017-04-30T04:12:51.006Z,1010.29
2017-04-30T04:13:51.645Z,1010.38
2017-04-30T04:14:52.544Z,1010.26
2017-04-30T04:15:53.183Z,1010.36
2017-04-30T04:16:53.823Z,1010.45
2017-04-30T04:17:54.459Z,1010.45
2017-04-30T04:18:55.099Z,1010.47
2017-04-30T04:19:55.740Z,1010.41
2017-04-30T04:20:56.379Z,1010.50
2017-04-30T04:21:57.018Z,1010.57
2017-04-30T04:22:57.808Z,1010.50
2017-04-30T04:23:58.450Z,1010.47
2017-04-30T04:24:59.084Z,1010.51
2017-04-30T04:25:59.726Z,1010.52
2017-04-30T04:27:00.368Z,1010.42
2017-04-30T04:28:01.006Z,1010.46
2017-04-30T04:29:01.647Z,1010.45
2017-04-30T04:30:02.290Z,1010.46
2017-04-30T04:31:03.130Z,1010.48
2017-04-30T04:32:03.772Z,1010.47
2017-04-30T04:33:04.409Z,1010.38
2017-04-30T04:34:05.048Z,1010.43
2017-04-30T04:35:05.691Z,1010.41
2017-04-30T04:36:06.331Z,1010.42
2017-04-30T04:37:06.967Z,1010.46
2017-04-30T04:38:07.606Z,1010.44
2017-04-30T04:39:08.441Z,1010.36
2017-04-30T04:40:09.076Z,1010.42
2017-04-30T04:41:09.717Z,1010.43
2017-04-30T04:42:10.353Z,1010.44
2017-04-30T04:43:10.992Z,1010.47
2017-04-30T04:44:11.630Z,1010.45
2017-04-30T04:45:12.268Z,1010.43
2017-04-30T04:46:12.906Z,1010.50
2017-04-30T04:47:13.551Z,1010.47
2017-04-30T04:48:14.339Z,1010.38
2017-04-30T04:49:14.973Z,1010.43
2017-04-30T04:50:15.613Z,1010.39
2017-04-30T04:51:16.252Z,1010.42
2017-04-30T04:52:16.891Z,1010.47
2017-04-30T04:53:17.530Z,1010.47
2017-04-30T04:54:18.168Z,1010.47
2017-04-30T04:55:18.806Z,1010.51
2017-04-30T04:56:19.799Z,1010.50
2017-04-30T04:57:20.445Z,1010.56
2017-04-30T04:58:21.088Z,1010.51
2017-04-30T04:59:21.726Z,1010.56
2017-04-30T05:00:22.364Z,1010.48
2017-04-30T05:01:23.005Z,1010.54
2017-04-30T05:02:23.646Z,1010.50
2017-04-30T05:03:24.286Z,1010.45
2017-04-30T05:04:25.128Z,1010.51
2017-04-30T05:05:25.826Z,1010.46
2017-04-30T05:06:26.467Z,1010.48
2017-04-30T05:07:27.103Z,1010.49
2017-04-30T05:08:27.800Z,1010.58
2017-04-30T05:09:28.436Z,1010.61
2017-04-30T05:10:29.072Z,1010.60
2017-04-30T05:11:29.707Z,1010.63
2017-04-30T05:12:30.497Z,1010.62
2017-04-30T05:13:31.138Z,1010.64
2017-04-30T05:14:31.779Z,1010.63
2017-04-30T05:15:32.420Z,1010.64
2017-04-30T05:16:33.055Z,1010.67
2017-04-30T05:17:33.694Z,1010.67
2017-04-30T05:18:34.336Z,1010.65
2017-04-30T05:19:34.973Z,1010.68
2017-04-30T05:20:35.615Z,1010.69
2017-04-30T05:21:36.457Z,1010.69
2017-04-30T05:22:37.092Z,1010.65
2017-04-30T05:23:37.732Z,1010.70
2017-04-30T05:24:38.372Z,1010.71
2017-04-30T05:25:39.015Z,1010.74
2017-04-30T05:26:39.654Z,1010.79
2017-04-30T05:27:40.294Z,1010.76
2017-04-30T05:28:40.934Z,1010.73
2017-04-30T05:29:42.023Z,1010.80
2017-04-30T05:30:42.662Z,1010.81
2017-04-30T05:31:43.300Z,1010.90
2017-04-30T05:32:43.940Z,1010.89
2017-04-30T05:33:44.580Z,1010.92
2017-04-30T05:34:45.221Z,1010.95
2017-04-30T05:35:45.862Z,1010.99
2017-04-30T05:36:46.505Z,1011.04
2017-04-30T05:37:47.392Z,1011.06
2017-04-30T05:38:48.032Z,1011.04
2017-04-30T05:39:48.676Z,1011.04
2017-04-30T05:40:49.311Z,1010.99
2017-04-30T05:41:49.953Z,1011.04
2017-04-30T05:42:50.589Z,1011.08
2017-04-30T05:43:51.179Z,1011.16
2017-04-30T05:44:51.819Z,1011.10
2017-04-30T05:45:52.707Z,1011.11
2017-04-30T05:46:53.354Z,1011.13
2017-04-30T05:47:53.994Z,1011.14
2017-04-30T05:48:54.630Z,1011.21
2017-04-30T05:49:55.267Z,1011.21
2017-04-30T05:50:55.906Z,1011.32
2017-04-30T05:51:56.544Z,1011.32
2017-04-30T05:52:57.185Z,1011.29
2017-04-30T05:53:58.371Z,1011.26
2017-04-30T05:54:59.010Z,1011.28
2017-04-30T05:55:59.650Z,1011.25
2017-04-30T05:57:00.289Z,1011.26
2017-04-30T05:58:00.927Z,1011.21
2017-04-30T05:59:01.569Z,1011.25
2017-04-30T06:00:02.204Z,1011.28
2017-04-30T06:01:02.843Z,1011.30
2017-04-30T06:02:03.482Z,1011.30
2017-04-30T06:03:04.323Z,1011.28
2017-04-30T06:04:04.961Z,1011.29
2017-04-30T06:05:05.601Z,1011.26
2017-04-30T06:06:06.243Z,1011.17
2017-04-30T06:07:06.878Z,1011.18
2017-04-30T06:08:07.520Z,1011.26
2017-04-30T06:09:08.160Z,1011.21
2017-04-30T06:10:08.799Z,1011.19
2017-04-30T06:11:09.639Z,1011.29
2017-04-30T06:12:10.278Z,1011.27
2017-04-30T06:13:10.918Z,1011.20
2017-04-30T06:14:11.559Z,1011.24
2017-04-30T06:15:12.198Z,1011.31
2017-04-30T06:16:12.834Z,1011.31
2017-04-30T06:17:13.480Z,1011.30
2017-04-30T06:18:14.118Z,1011.30
2017-04-30T06:19:14.955Z,1011.31
2017-04-30T06:20:15.597Z,1011.33
2017-04-30T06:21:16.235Z,1011.30
2017-04-30T06:22:16.880Z,1011.41
2017-04-30T06:23:17.515Z,1011.73
2017-04-30T06:24:18.154Z,1011.73
2017-04-30T06:25:18.796Z,1011.69
2017-04-30T06:26:19.437Z,1011.60
2017-04-30T06:27:20.275Z,1011.64
2017-04-30T06:28:20.915Z,1011.60
2017-04-30T06:29:21.554Z,1011.61
2017-04-30T06:30:22.191Z,1011.65
2017-04-30T06:31:22.833Z,1011.72
2017-04-30T06:32:23.472Z,1011.75
2017-04-30T06:33:24.111Z,1011.82
2017-04-30T06:34:24.751Z,1011.78
2017-04-30T06:35:25.391Z,1011.77
2017-04-30T06:36:26.181Z,1011.88
2017-04-30T06:37:26.826Z,1012.00
2017-04-30T06:38:27.462Z,1012.08
2017-04-30T06:39:28.100Z,1012.12
2017-04-30T06:40:28.740Z,1012.13
2017-04-30T06:41:29.377Z,1012.23
2017-04-30T06:42:30.015Z,1012.30
2017-04-30T06:43:30.655Z,1012.33
2017-04-30T06:44:31.494Z,1012.25
2017-04-30T06:45:32.138Z,1012.30
2017-04-30T06:46:32.775Z,1012.29
2017-04-30T06:47:33.409Z,1012.26
2017-04-30T06:48:34.051Z,1012.26
2017-04-30T06:49:34.689Z,1012.28
2017-04-30T06:50:35.326Z,1012.26
2017-04-30T06:51:35.967Z,1012.24
2017-04-30T06:52:36.755Z,1012.32
2017-04-30T06:53:37.400Z,1012.27
2017-04-30T06:54:38.041Z,1012.38
2017-04-30T06:55:38.680Z,1012.32
2017-04-30T06:56:39.317Z,1012.28
2017-04-30T06:57:39.957Z,1012.29
2017-04-30T06:58:40.599Z,1012.32
2017-04-30T06:59:41.237Z,1012.26
2017-04-30T07:00:42.077Z,1012.32
2017-04-30T07:01:42.716Z,1012.30
2017-04-30T07:02:43.357Z,1012.37
2017-04-30T07:03:43.996Z,1012.42
2017-04-30T07:04:44.633Z,1012.41
2017-04-30T07:05:45.225Z,1012.39
2017-04-30T07:06:45.863Z,1012.45
2017-04-30T07:07:46.502Z,1012.48
2017-04-30T07:08:47.289Z,1012.46
2017-04-30T07:09:47.929Z,1012.48
2017-04-30T07:10:48.571Z,1012.57
2017-04-30T07:11:49.210Z,1012.52
2017-04-30T07:12:49.847Z,1012.54
2017-04-30T07:13:50.488Z,1012.56
2017-04-30T07:14:51.128Z,1012.51
2017-04-30T07:15:51.770Z,1012.55
2017-04-30T07:16:52.407Z,1012.55
2017-04-30T07:17:53.243Z,1012.52
2017-04-30T07:18:53.884Z,1012.63
2017-04-30T07:19:54.523Z,1012.77
2017-04-30T07:20:55.165Z,1012.81
2017-04-30T07:21:55.805Z,1012.83
2017-04-30T07:22:56.443Z,1012.85
2017-04-30T07:23:57.084Z,1012.89
2017-04-30T07:24:57.725Z,1012.91
2017-04-30T07:25:58.566Z,1012.91
2017-04-30T07:26:59.206Z,1012.92
2017-04-30T07:27:59.841Z,1013.02
2017-04-30T07:29:00.480Z,1013.07
2017-04-30T07:30:01.118Z,1012.95
2017-04-30T07:31:01.756Z,1013.04
2017-04-30T07:32:02.396Z,1013.07
2017-04-30T07:33:03.035Z,1013.12
2017-04-30T07:34:03.823Z,1013.16
2017-04-30T07:35:04.458Z,1013.18
2017-04-30T07:36:05.100Z,1013.14
2017-04-30T07:37:05.738Z,1013.12
2017-04-30T07:38:06.382Z,1013.20
2017-04-30T07:39:07.018Z,1013.22
2017-04-30T07:40:07.660Z,1013.15
2017-04-30T07:41:08.297Z,1013.24
2017-04-30T07:42:09.137Z,1013.18
2017-04-30T07:43:09.787Z,1013.17
2017-04-30T07:44:10.415Z,1013.15
2017-04-30T07:45:11.055Z,1013.16
2017-04-30T07:46:11.689Z,1013.11
2017-04-30T07:47:12.329Z,1013.07
2017-04-30T07:48:12.967Z,1013.19
2017-04-30T07:49:13.612Z,1013.21
2017-04-30T07:50:14.249Z,1013.16
2017-04-30T07:51:15.037Z,1013.13
2017-04-30T07:52:15.675Z,1013.19
2017-04-30T07:53:16.312Z,1013.18
2017-04-30T07:54:16.946Z,1013.16
2017-04-30T07:55:17.586Z,1013.21
2017-04-30T07:56:18.225Z,1013.16
2017-04-30T07:57:18.864Z,1013.17
2017-04-30T07:58:19.505Z,1013.24
2017-04-30T07:59:20.345Z,1013.28
2017-04-30T08:00:20.988Z,1013.25
2017-04-30T08:01:21.621Z,1013.26
2017-04-30T08:02:22.212Z,1013.23
2017-04-30T08:03:22.852Z,1013.25
2017-04-30T08:04:23.489Z,1013.22
2017-04-30T08:05:24.129Z,1013.18
2017-04-30T08:06:24.773Z,1013.20
2017-04-30T08:07:25.408Z,1013.22
2017-04-30T08:08:26.049Z,1013.19
2017-04-30T08:09:26.686Z,1013.16
2017-04-30T08:10:27.331Z,1013.17
2017-04-30T08:11:28.023Z,1013.22
2017-04-30T08:12:28.661Z,1013.29
2017-04-30T08:13:29.301Z,1013.18
2017-04-30T08:14:29.942Z,1013.20
2017-04-30T08:15:30.778Z,1013.14
2017-04-30T08:16:31.419Z,1013.17
2017-04-30T08:17:32.056Z,1013.15
2017-04-30T08:18:32.691Z,1013.12
2017-04-30T08:19:33.281Z,1013.19
2017-04-30T08:20:33.922Z,1013.15
2017-04-30T08:21:34.561Z,1013.24
2017-04-30T08:22:35.402Z,1013.25
2017-04-30T08:23:36.046Z,1013.22
2017-04-30T08:24:36.685Z,1013.25
2017-04-30T08:25:37.329Z,1013.27
2017-04-30T08:26:38.122Z,1013.24
2017-04-30T08:27:38.761Z,1013.30
2017-04-30T08:28:39.398Z,1013.33
2017-04-30T08:29:40.044Z,1013.33
2017-04-30T08:30:40.684Z,1013.29
2017-04-30T08:31:41.323Z,1013.24
2017-04-30T08:32:41.963Z,1013.35
2017-04-30T08:33:42.603Z,1013.37
2017-04-30T08:34:43.392Z,1013.38
2017-04-30T08:35:44.032Z,1013.40
2017-04-30T08:36:44.667Z,1013.49
2017-04-30T08:37:45.309Z,1013.42
2017-04-30T08:38:45.947Z,1013.45
2017-04-30T08:39:46.586Z,1013.56
2017-04-30T08:40:47.220Z,1013.53
2017-04-30T08:41:47.859Z,1013.52
2017-04-30T08:42:48.700Z,1013.54
2017-04-30T08:43:49.340Z,1013.50
2017-04-30T08:44:49.983Z,1013.48
2017-04-30T08:45:50.620Z,1013.60
2017-04-30T08:46:51.260Z,1013.60
2017-04-30T08:47:51.902Z,1013.69
2017-04-30T08:48:52.538Z,1013.61
2017-04-30T08:49:53.179Z,1013.70
2017-04-30T08:50:53.820Z,1013.67
2017-04-30T08:51:54.612Z,1013.70
2017-04-30T08:52:55.250Z,1013.65
2017-04-30T08:53:55.891Z,1013.79
2017-04-30T08:54:56.587Z,1013.92
2017-04-30T08:55:57.227Z,1013.89
2017-04-30T08:56:57.866Z,1014.03
2017-04-30T08:57:58.510Z,1013.77
2017-04-30T08:58:59.148Z,1013.93
2017-04-30T08:59:59.940Z,1013.88
2017-04-30T09:01:00.583Z,1013.95
2017-04-30T09:02:01.279Z,1013.85
2017-04-30T09:03:01.920Z,1013.93
2017-04-30T09:04:02.558Z,1014.00
2017-04-30T09:05:03.198Z,1013.96
2017-04-30T09:06:03.890Z,1014.02
2017-04-30T09:07:04.729Z,1014.10
2017-04-30T09:08:05.372Z,1014.06
2017-04-30T09:09:06.008Z,1014.09
2017-04-30T09:10:06.950Z,1014.01
2017-04-30T09:11:07.591Z,1014.06
2017-04-30T09:12:08.381Z,1014.05
2017-04-30T09:13:09.022Z,1014.08
2017-04-30T09:14:09.668Z,1014.11
2017-04-30T09:15:10.306Z,1014.07
2017-04-30T09:16:10.945Z,1014.09
2017-04-30T09:17:11.587Z,1014.24
2017-04-30T09:18:12.225Z,1014.26
2017-04-30T09:19:12.871Z,1014.17
2017-04-30T09:20:13.710Z,1014.14
2017-04-30T09:21:14.666Z,1014.10
2017-04-30T09:22:15.307Z,1014.26
2017-04-30T09:23:15.946Z,1014.14
2017-04-30T09:24:16.589Z,1014.15
2017-04-30T09:25:17.230Z,1014.27
2017-04-30T09:26:17.869Z,1014.13
2017-04-30T09:27:18.536Z,1014.21
2017-04-30T09:28:19.352Z,1014.11
2017-04-30T09:29:19.992Z,1014.27
2017-04-30T09:30:20.632Z,1014.25
2017-04-30T09:31:21.271Z,1014.16
2017-04-30T09:32:21.913Z,1014.20
2017-04-30T09:33:22.556Z,1014.21
2017-04-30T09:34:23.191Z,1014.32
2017-04-30T09:35:23.833Z,1014.32
2017-04-30T09:36:24.628Z,1014.26
2017-04-30T09:37:25.273Z,1014.31
2017-04-30T09:38:25.919Z,1014.33
2017-04-30T09:39:26.563Z,1014.24
2017-04-30T09:40:27.207Z,1014.30
2017-04-30T09:41:27.852Z,1014.33
2017-04-30T09:42:28.503Z,1014.28
2017-04-30T09:43:29.141Z,1014.41
2017-04-30T09:44:29.787Z,1014.37
2017-04-30T09:45:30.778Z,1014.33
2017-04-30T09:46:31.423Z,1014.39
2017-04-30T09:47:32.069Z,1014.41
2017-04-30T09:48:32.718Z,1014.42
2017-04-30T09:49:33.360Z,1014.46
2017-04-30T09:50:34.005Z,1014.47
2017-04-30T09:51:34.651Z,1014.49
2017-04-30T09:52:35.297Z,1014.54
2017-04-30T09:53:36.094Z,1014.54
2017-04-30T09:54:36.739Z,1014.58
2017-04-30T09:55:37.387Z,1014.63
2017-04-30T09:56:38.043Z,1014.66
2017-04-30T09:57:38.694Z,1014.57
2017-04-30T09:58:39.330Z,1014.64
2017-04-30T09:59:39.974Z,1014.65
2017-04-30T10:00:40.622Z,1014.57
2017-04-30T10:01:41.466Z,1014.67
2017-04-30T10:02:42.111Z,1014.62
2017-04-30T10:03:42.758Z,1014.66
2017-04-30T10:04:43.402Z,1014.66
2017-04-30T10:05:44.052Z,1014.71
2017-04-30T10:06:44.697Z,1014.65
2017-04-30T10:07:45.341Z,1014.66
2017-04-30T10:08:45.987Z,1014.68
2017-04-30T10:09:46.787Z,1014.72
2017-04-30T10:10:47.434Z,1014.74
2017-04-30T10:11:48.077Z,1014.65
2017-04-30T10:12:48.723Z,1014.74
2017-04-30T10:13:49.371Z,1014.83
2017-04-30T10:14:50.018Z,1014.73
2017-04-30T10:15:50.718Z,1014.89
2017-04-30T10:16:51.361Z,1014.80
2017-04-30T10:17:52.005Z,1014.84
2017-04-30T10:18:52.952Z,1014.88
2017-04-30T10:19:53.593Z,1014.88
2017-04-30T10:20:54.235Z,1014.84
2017-04-30T10:21:54.881Z,1014.92
2017-04-30T10:22:55.526Z,1014.88
2017-04-30T10:23:56.170Z,1014.85
2017-04-30T10:24:56.817Z,1014.92
2017-04-30T10:25:57.464Z,1014.95
2017-04-30T10:26:58.313Z,1014.98
2017-04-30T10:27:58.959Z,1014.89
2017-04-30T10:28:59.612Z,1014.94
2017-04-30T10:30:00.255Z,1015.03
2017-04-30T10:31:00.904Z,1014.99
2017-04-30T10:32:01.550Z,1015.03
2017-04-30T10:33:02.194Z,1015.10
2017-04-30T10:34:02.834Z,1015.04
2017-04-30T10:35:03.682Z,1015.05
2017-04-30T10:36:04.329Z,1015.11
2017-04-30T10:37:04.973Z,1015.18
2017-04-30T10:38:05.619Z,1015.14
2017-04-30T10:39:06.266Z,1015.17
2017-04-30T10:40:06.913Z,1015.18
2017-04-30T10:41:07.562Z,1015.17
2017-04-30T10:42:08.207Z,1015.17
2017-04-30T10:43:09.054Z,1015.24
2017-04-30T10:44:09.696Z,1015.19
2017-04-30T10:45:10.342Z,1015.19
2017-04-30T10:46:10.988Z,1015.23
2017-04-30T10:47:11.633Z,1015.24
2017-04-30T10:48:12.279Z,1015.21
2017-04-30T10:49:12.926Z,1015.30
2017-04-30T10:50:13.582Z,1015.35
2017-04-30T10:51:14.373Z,1015.30
2017-04-30T10:52:15.022Z,1015.34
2017-04-30T10:53:15.672Z,1015.27
2017-04-30T10:54:16.319Z,1015.36
2017-04-30T10:55:16.967Z,1015.35
2017-04-30T10:56:17.611Z,1015.30
2017-04-30T10:57:18.260Z,1015.30
2017-04-30T10:58:18.904Z,1015.34
2017-04-30T10:59:19.554Z,1015.26
2017-04-30T11:00:20.404Z,1015.35
2017-04-30T11:01:21.056Z,1015.33
2017-04-30T11:02:21.695Z,1015.36
2017-04-30T11:03:22.344Z,1015.44
2017-04-30T11:04:22.987Z,1015.41
2017-04-30T11:05:23.635Z,1015.45
2017-04-30T11:06:24.284Z,1015.43
2017-04-30T11:07:24.931Z,1015.44
2017-04-30T11:08:25.779Z,1015.43
2017-04-30T11:09:26.429Z,1015.43
2017-04-30T11:10:27.075Z,1015.45
2017-04-30T11:11:27.724Z,1015.48
2017-04-30T11:12:28.374Z,1015.49
2017-04-30T11:13:29.024Z,1015.45
2017-04-30T11:14:29.674Z,1015.50
2017-04-30T11:15:30.325Z,1015.46
2017-04-30T11:16:31.375Z,1015.57
2017-04-30T11:17:32.022Z,1015.49
2017-04-30T11:18:32.675Z,1015.44
2017-04-30T11:19:33.325Z,1015.40
2017-04-30T11:20:33.978Z,1015.53
2017-04-30T11:21:34.624Z,1015.44
2017-04-30T11:22:35.281Z,1015.54
2017-04-30T11:23:35.930Z,1015.58
2017-04-30T11:24:36.783Z,1015.58
2017-04-30T11:25:37.434Z,1015.60
2017-04-30T11:26:38.086Z,1015.62
2017-04-30T11:27:38.690Z,1015.57
2017-04-30T11:28:39.343Z,1015.61
2017-04-30T11:29:39.997Z,1015.58
2017-04-30T11:30:40.649Z,1015.66
2017-04-30T11:31:41.301Z,1015.62
2017-04-30T11:32:41.953Z,1015.70
2017-04-30T11:33:42.853Z,1015.70
2017-04-30T11:34:43.507Z,1015.67
2017-04-30T11:35:44.159Z,1015.67
2017-04-30T11:36:44.813Z,1015.69
2017-04-30T11:37:45.469Z,1015.76
2017-04-30T11:38:46.124Z,1015.74
2017-04-30T11:39:46.775Z,1015.74
2017-04-30T11:40:47.425Z,1015.70
2017-04-30T11:41:48.428Z,1015.73
2017-04-30T11:42:49.085Z,1015.76
2017-04-30T11:43:49.743Z,1015.77
2017-04-30T11:44:50.392Z,1015.73
2017-04-30T11:45:51.044Z,1015.76
2017-04-30T11:46:51.695Z,1015.84
2017-04-30T11:47:52.348Z,1015.73
2017-04-30T11:48:52.998Z,1015.79
2017-04-30T11:49:53.855Z,1015.78
2017-04-30T11:50:54.510Z,1015.75
2017-04-30T11:51:55.161Z,1015.70
2017-04-30T11:52:55.816Z,1015.80
2017-04-30T11:53:56.470Z,1015.72
2017-04-30T11:54:57.127Z,1015.73
2017-04-30T11:55:57.779Z,1015.86
2017-04-30T11:56:58.438Z,1015.79
2017-04-30T11:57:59.295Z,1015.86
2017-04-30T11:58:59.951Z,1015.83
2017-04-30T12:00:00.604Z,1015.82
2017-04-30T12:01:01.261Z,1015.80
2017-04-30T12:02:01.915Z,1015.86
2017-04-30T12:03:02.570Z,1015.85
2017-04-30T12:04:03.227Z,1015.86
2017-04-30T12:05:03.881Z,1015.89
2017-04-30T12:06:04.687Z,1015.86
2017-04-30T12:07:05.337Z,1015.90
2017-04-30T12:08:05.992Z,1015.99
2017-04-30T12:09:06.647Z,1015.98
2017-04-30T12:10:07.298Z,1015.92
2017-04-30T12:11:07.952Z,1015.97
2017-04-30T12:12:08.602Z,1016.07
2017-04-30T12:13:09.251Z,1015.99